createdAt,value
2018-08-23T00:01:35.987Z,11.78
2018-08-23T00:04:09.800Z,11.93
2018-08-23T00:06:41.310Z,11.93
2018-08-23T00:09:09.713Z,12.20
2018-08-23T00:11:47.555Z,12.03
2018-08-23T00:14:16.642Z,14.00
2018-08-23T00:16:45.985Z,13.10
2018-08-23T00:19:14.609Z,12.20
2018-08-23T00:21:44.917Z,11.97
2018-08-23T00:24:15.063Z,14.13
2018-08-23T00:26:48.217Z,12.70
2018-08-23T00:29:31.821Z,12.37
2018-08-23T00:32:03.414Z,12.13
2018-08-23T00:34:33.870Z,14.50
2018-08-23T00:37:02.765Z,13.40
2018-08-23T00:39:31.120Z,14.40
2018-08-23T00:42:04.876Z,13.10
2018-08-23T00:44:48.871Z,14.13
2018-08-23T00:47:17.260Z,15.83
2018-08-23T00:49:45.610Z,12.33
2018-08-23T00:52:17.342Z,13.30
2018-08-23T00:54:45.715Z,12.63
2018-08-23T00:57:14.079Z,12.33
2018-08-23T00:59:42.622Z,12.03
2018-08-23T01:02:11.601Z,13.30
2018-08-23T01:04:44.023Z,13.10
2018-08-23T01:07:14.136Z,12.40
2018-08-23T01:09:44.666Z,18.63
2018-08-23T01:12:13.435Z,13.63
2018-08-23T01:14:41.953Z,20.63
2018-08-23T01:17:18.118Z,13.67
2018-08-23T01:19:51.923Z,13.37
2018-08-23T01:22:20.290Z,12.40
2018-08-23T01:24:49.777Z,15.93
2018-08-23T01:27:23.582Z,14.07
2018-08-23T01:29:51.967Z,14.07
2018-08-23T01:32:35.810Z,16.23
2018-08-23T01:35:04.298Z,12.63
2018-08-23T01:37:37.261Z,18.37
2018-08-23T01:40:07.597Z,15.10
2018-08-23T01:42:37.175Z,13.43
2018-08-23T01:45:06.910Z,15.53
2018-08-23T01:48:11.549Z,13.98
2018-08-23T01:50:40.264Z,19.73
2018-08-23T01:53:22.679Z,14.23
2018-08-23T01:55:51.027Z,12.20
2018-08-23T01:58:19.389Z,16.47
2018-08-23T02:00:54.166Z,15.80
2018-08-23T02:03:22.504Z,14.50
2018-08-23T02:05:50.872Z,13.53
2018-08-23T02:08:19.240Z,13.57
2018-08-23T02:10:47.568Z,12.80
2018-08-23T02:13:20.399Z,15.80
2018-08-23T02:15:50.699Z,16.93
2018-08-23T02:18:19.099Z,13.43
2018-08-23T02:20:47.641Z,14.23
2018-08-23T02:23:15.983Z,13.83
2018-08-23T02:25:44.336Z,15.50
2018-08-23T02:28:12.759Z,13.70
2018-08-23T02:31:02.064Z,16.53
2018-08-23T02:33:30.424Z,13.80
2018-08-23T02:36:06.963Z,14.23
2018-08-23T02:38:36.048Z,16.23
2018-08-23T02:41:04.548Z,14.53
2018-08-23T02:43:32.977Z,14.20
2018-08-23T02:46:02.780Z,16.70
2018-08-23T02:48:31.157Z,16.90
2018-08-23T02:50:59.483Z,12.80
2018-08-23T02:53:40.514Z,34.33
2018-08-23T02:56:10.704Z,14.30
2018-08-23T02:59:03.579Z,13.60
2018-08-23T03:01:33.065Z,19.30
2018-08-23T03:04:06.368Z,14.70
2018-08-23T03:06:43.914Z,14.10
2018-08-23T03:09:12.327Z,19.37
2018-08-23T03:11:40.648Z,16.63
2018-08-23T03:14:09.091Z,14.90
2018-08-23T03:16:50.095Z,17.60
2018-08-23T03:19:18.441Z,16.77
2018-08-23T03:21:47.340Z,13.10
2018-08-23T03:24:19.936Z,19.73
2018-08-23T03:26:48.425Z,17.53
2018-08-23T03:29:16.770Z,20.50
2018-08-23T03:31:45.160Z,13.77
2018-08-23T03:34:13.476Z,13.33
2018-08-23T03:36:41.849Z,15.43
2018-08-23T03:39:10.665Z,13.73
2018-08-23T03:41:39.028Z,18.00
2018-08-23T03:44:20.980Z,13.10
2018-08-23T03:46:52.585Z,14.10
2018-08-23T03:49:33.103Z,13.47
2018-08-23T03:52:01.460Z,14.93
2018-08-23T03:54:30.499Z,14.70
2018-08-23T03:57:13.712Z,22.20
2018-08-23T03:59:47.171Z,13.40
2018-08-23T04:02:16.759Z,14.83
2018-08-23T04:04:46.869Z,13.90
2018-08-23T04:07:15.585Z,14.18
2018-08-23T04:09:44.130Z,14.85
2018-08-23T04:12:12.468Z,14.70
2018-08-23T04:14:40.860Z,17.77
2018-08-23T04:19:46.675Z,13.43
2018-08-23T04:22:15.017Z,14.55
2018-08-23T04:24:48.691Z,17.10
2018-08-23T04:27:18.376Z,20.30
2018-08-23T04:29:48.796Z,14.20
2018-08-23T04:32:30.140Z,15.40
2018-08-23T04:35:00.099Z,15.43
2018-08-23T04:37:29.291Z,17.93
2018-08-23T04:40:04.977Z,17.20
2018-08-23T04:42:33.406Z,16.70
2018-08-23T04:45:10.195Z,16.17
2018-08-23T04:47:44.884Z,19.83
2018-08-23T04:50:14.484Z,23.00
2018-08-23T04:52:43.187Z,19.00
2018-08-23T04:55:11.549Z,19.27
2018-08-23T04:57:39.917Z,14.98
2018-08-23T05:00:08.342Z,16.77
2018-08-23T05:02:36.696Z,18.73
2018-08-23T05:05:05.189Z,26.10
2018-08-23T05:07:33.536Z,48.30
2018-08-23T05:10:02.188Z,29.73
2018-08-23T05:12:30.545Z,40.37
2018-08-23T05:14:58.968Z,33.13
2018-08-23T05:17:27.426Z,36.97
2018-08-23T05:19:55.892Z,38.20
2018-08-23T05:22:24.324Z,30.87
2018-08-23T05:24:57.063Z,17.30
2018-08-23T05:27:25.187Z,52.27
2018-08-23T05:29:53.696Z,39.80
2018-08-23T05:32:21.983Z,22.70
2018-08-23T05:34:50.373Z,26.60
2018-08-23T05:37:19.037Z,14.53
2018-08-23T05:39:50.089Z,20.27
2018-08-23T05:42:29.060Z,17.90
2018-08-23T05:44:57.401Z,16.73
2018-08-23T05:47:25.764Z,15.03
2018-08-23T05:49:54.099Z,14.37
2018-08-23T05:52:22.455Z,16.00
2018-08-23T05:54:50.928Z,16.77
2018-08-23T05:57:19.265Z,16.23
2018-08-23T05:59:47.621Z,17.40
2018-08-23T06:02:16.144Z,16.47
2018-08-23T06:04:44.569Z,15.37
2018-08-23T06:07:12.933Z,15.13
2018-08-23T06:09:41.433Z,13.50
2018-08-23T06:12:09.826Z,19.50
2018-08-23T06:14:38.153Z,13.63
2018-08-23T06:17:06.488Z,18.17
2018-08-23T06:19:34.849Z,13.47
2018-08-23T06:22:03.248Z,13.93
2018-08-23T06:24:31.777Z,12.60
2018-08-23T06:27:00.952Z,21.53
2018-08-23T06:29:30.671Z,12.80
2018-08-23T06:32:09.992Z,13.43
2018-08-23T06:34:47.256Z,19.03
2018-08-23T06:37:16.458Z,21.37
2018-08-23T06:39:44.815Z,20.07
2018-08-23T06:42:13.180Z,44.50
2018-08-23T06:44:45.808Z,17.17
2018-08-23T06:47:16.504Z,11.83
2018-08-23T06:49:46.115Z,12.23
2018-08-23T06:52:20.109Z,12.60
2018-08-23T06:54:48.636Z,16.97
2018-08-23T06:57:17.005Z,21.60
2018-08-23T06:59:45.393Z,13.80
2018-08-23T07:02:13.804Z,12.20
2018-08-23T07:04:42.447Z,12.80
2018-08-23T07:07:15.058Z,13.10
2018-08-23T07:09:43.392Z,20.17
2018-08-23T07:12:17.089Z,11.80
2018-08-23T07:14:46.758Z,14.10
2018-08-23T07:17:20.588Z,16.03
2018-08-23T07:19:49.409Z,11.27
2018-08-23T07:22:22.999Z,11.43
2018-08-23T07:24:52.505Z,14.67
2018-08-23T07:27:21.765Z,29.87
2018-08-23T07:29:52.271Z,13.63
2018-08-23T07:32:23.516Z,11.20
2018-08-23T07:34:58.884Z,14.17
2018-08-23T07:37:27.288Z,11.00
2018-08-23T07:40:00.997Z,13.40
2018-08-23T07:42:30.452Z,15.97
2018-08-23T07:44:59.572Z,16.03
2018-08-23T07:47:28.188Z,11.40
2018-08-23T07:49:57.752Z,10.00
2018-08-23T07:52:27.216Z,11.73
2018-08-23T07:54:55.672Z,10.20
2018-08-23T07:57:24.046Z,13.93
2018-08-23T07:59:57.857Z,14.80
2018-08-23T08:02:26.483Z,16.17
2018-08-23T08:04:54.989Z,13.60
2018-08-23T08:07:26.540Z,13.80
2018-08-23T08:09:55.240Z,9.93
2018-08-23T08:12:37.179Z,20.03
2018-08-23T08:15:08.757Z,10.77
2018-08-23T08:17:36.970Z,9.87
2018-08-23T08:20:07.612Z,23.13
2018-08-23T08:22:36.045Z,10.37
2018-08-23T08:25:19.678Z,16.83
2018-08-23T08:27:49.245Z,10.23
2018-08-23T08:30:20.758Z,10.97
2018-08-23T08:32:49.078Z,13.73
2018-08-23T08:35:19.560Z,12.70
2018-08-23T08:37:49.190Z,11.30
2018-08-23T08:40:22.493Z,11.07
2018-08-23T08:42:50.840Z,10.50
2018-08-23T08:45:19.219Z,10.47
2018-08-23T08:47:48.009Z,14.20
2018-08-23T08:50:16.658Z,11.97
2018-08-23T08:52:45.016Z,12.23
2018-08-23T08:55:14.770Z,11.33
2018-08-23T08:57:44.553Z,9.90
2018-08-23T09:00:12.987Z,28.83
2018-08-23T09:02:41.401Z,9.73
2018-08-23T09:05:10.656Z,9.00
2018-08-23T09:07:40.665Z,10.43
2018-08-23T09:10:09.047Z,8.87
2018-08-23T09:12:42.644Z,9.63
2018-08-23T09:15:11.027Z,12.50
2018-08-23T09:17:41.350Z,13.50
2018-08-23T09:20:11.289Z,12.43
2018-08-23T09:22:43.083Z,8.90
2018-08-23T09:25:16.068Z,12.33
2018-08-23T09:27:45.720Z,6.93
2018-08-23T09:30:19.464Z,7.80
2018-08-23T09:32:47.794Z,8.00
2018-08-23T09:35:16.241Z,11.77
2018-08-23T09:37:44.674Z,10.53
2018-08-23T09:40:12.992Z,10.53
2018-08-23T09:42:41.320Z,11.33
2018-08-23T09:45:13.832Z,7.50
2018-08-23T09:47:42.357Z,7.33
2018-08-23T09:50:10.723Z,6.90
2018-08-23T09:52:42.993Z,6.83
2018-08-23T09:55:12.524Z,9.57
2018-08-23T09:57:41.343Z,7.50
2018-08-23T10:00:12.378Z,6.33
2018-08-23T10:02:46.118Z,7.30
2018-08-23T10:05:19.734Z,11.03
2018-08-23T10:07:53.417Z,6.70
2018-08-23T10:10:26.992Z,6.57
2018-08-23T10:13:00.692Z,5.40
2018-08-23T10:15:34.395Z,6.50
2018-08-23T10:18:08.166Z,5.87
2018-08-23T10:20:44.433Z,5.93
2018-08-23T10:23:18.608Z,5.47
2018-08-23T10:25:50.010Z,5.53
2018-08-23T10:28:19.524Z,6.13
2018-08-23T10:30:48.416Z,5.20
2018-08-23T10:33:17.105Z,13.17
2018-08-23T10:35:46.332Z,5.37
2018-08-23T10:38:16.482Z,4.20
2018-08-23T10:40:45.937Z,4.20
2018-08-23T10:43:14.776Z,5.77
2018-08-23T10:45:43.426Z,4.93
2018-08-23T10:48:15.570Z,12.93
2018-08-23T10:50:44.553Z,32.27
2018-08-23T10:53:13.253Z,11.40
2018-08-23T10:55:42.033Z,5.30
2018-08-23T10:58:10.387Z,3.53
2018-08-23T11:00:38.764Z,6.00
2018-08-23T11:03:07.146Z,3.33
2018-08-23T11:05:35.518Z,5.93
2018-08-23T11:08:09.130Z,3.00
2018-08-23T11:10:42.992Z,3.33
2018-08-23T11:13:45.426Z,8.77
2018-08-23T11:16:19.135Z,3.17
2018-08-23T11:18:52.914Z,14.30
2018-08-23T11:21:21.280Z,2.97
2018-08-23T11:23:49.651Z,2.63
2018-08-23T11:26:23.251Z,2.73
2018-08-23T11:28:51.910Z,2.80
2018-08-23T11:31:25.800Z,13.53
2018-08-23T11:33:54.326Z,4.00
2018-08-23T11:36:22.805Z,2.50
2018-08-23T11:38:51.197Z,2.73
2018-08-23T11:41:19.825Z,2.77
2018-08-23T11:43:48.548Z,4.30
2018-08-23T11:46:18.221Z,2.80
2018-08-23T11:48:47.275Z,3.07
2018-08-23T11:51:16.414Z,2.90
2018-08-23T11:53:45.488Z,2.40
2018-08-23T11:56:13.804Z,2.00
2018-08-23T11:58:42.661Z,2.47
2018-08-23T12:01:14.277Z,2.60
2018-08-23T12:03:42.928Z,2.40
2018-08-23T12:06:12.485Z,3.07
2018-08-23T12:08:41.416Z,2.80
2018-08-23T12:11:09.788Z,2.58
2018-08-23T12:13:38.213Z,2.30
2018-08-23T12:16:08.110Z,2.90
2018-08-23T12:18:37.509Z,2.50
2018-08-23T12:21:06.314Z,4.43
2018-08-23T12:23:34.879Z,2.70
2018-08-23T12:26:03.357Z,4.20
2018-08-23T12:28:37.075Z,11.73
2018-08-23T12:31:05.710Z,11.38
2018-08-23T12:33:34.052Z,2.30
2018-08-23T12:36:07.969Z,2.20
2018-08-23T12:38:41.804Z,2.30
2018-08-23T12:41:15.558Z,2.50
2018-08-23T12:43:51.313Z,3.22
2018-08-23T12:46:19.741Z,2.60
2018-08-23T12:48:48.317Z,2.80
2018-08-23T12:51:16.697Z,2.50
2018-08-23T12:53:45.081Z,2.50
2018-08-23T12:56:13.490Z,3.67
2018-08-23T12:58:41.863Z,3.03
2018-08-23T13:01:10.243Z,2.70
2018-08-23T13:03:38.670Z,3.00
2018-08-23T13:06:07.043Z,2.87
2018-08-23T13:08:35.368Z,3.10
2018-08-23T13:11:03.711Z,3.20
2018-08-23T13:13:32.056Z,3.00
2018-08-23T13:16:00.443Z,4.30
2018-08-23T13:18:28.777Z,8.93
2018-08-23T13:20:57.162Z,30.67
2018-08-23T13:23:25.550Z,7.57
2018-08-23T13:25:55.550Z,3.23
2018-08-23T13:28:24.695Z,3.30
2018-08-23T13:30:53.182Z,3.60
2018-08-23T13:33:21.639Z,3.27
2018-08-23T13:35:50.025Z,3.43
2018-08-23T13:38:18.823Z,3.07
2018-08-23T13:40:47.173Z,3.43
2018-08-23T13:43:15.593Z,2.83
2018-08-23T13:45:44.070Z,25.83
2018-08-23T13:48:12.433Z,6.83
2018-08-23T13:50:40.767Z,5.77
2018-08-23T13:53:09.170Z,15.20
2018-08-23T13:55:37.576Z,2.87
2018-08-23T13:58:05.992Z,49.67
2018-08-23T14:00:39.956Z,5.50
2018-08-23T14:03:09.246Z,6.20
2018-08-23T14:05:38.547Z,14.73
2018-08-23T14:08:06.996Z,18.53
2018-08-23T14:10:35.470Z,8.90
2018-08-23T14:13:04.029Z,8.50
2018-08-23T14:15:37.689Z,4.60
2018-08-23T14:18:06.075Z,3.77
2018-08-23T14:20:34.455Z,5.83
2018-08-23T14:23:02.832Z,6.10
2018-08-23T14:25:31.194Z,2.90
2018-08-23T14:27:59.553Z,5.60
2018-08-23T14:30:27.953Z,4.63
2018-08-23T14:32:56.325Z,5.47
2018-08-23T14:35:24.660Z,3.60
2018-08-23T14:37:53.029Z,3.03
2018-08-23T14:40:21.481Z,5.50
2018-08-23T14:42:49.825Z,3.70
2018-08-23T14:45:23.515Z,9.50
2018-08-23T14:47:57.277Z,3.33
2018-08-23T14:50:25.684Z,3.00
2018-08-23T14:52:54.087Z,3.23
2018-08-23T14:55:27.902Z,3.40
2018-08-23T14:57:56.312Z,9.00
2018-08-23T15:00:24.689Z,3.17
2018-08-23T15:02:53.104Z,2.60
2018-08-23T15:05:21.502Z,2.60
2018-08-23T15:07:49.940Z,2.80
2018-08-23T15:10:18.333Z,4.20
2018-08-23T15:12:46.730Z,2.93
2018-08-23T15:15:15.116Z,3.00
2018-08-23T15:17:43.487Z,2.87
2018-08-23T15:20:11.830Z,4.83
2018-08-23T15:22:40.196Z,2.87
2018-08-23T15:25:08.577Z,3.67
2018-08-23T15:27:36.929Z,2.90
2018-08-23T15:30:05.699Z,3.13
2018-08-23T15:32:34.063Z,2.92
2018-08-23T15:35:02.529Z,3.37
2018-08-23T15:37:30.940Z,3.30
2018-08-23T15:39:59.316Z,3.55
2018-08-23T15:42:27.687Z,3.40
2018-08-23T15:44:56.071Z,3.52
2018-08-23T15:47:24.624Z,3.70
2018-08-23T15:49:53.121Z,3.12
2018-08-23T15:52:21.499Z,3.47
2018-08-23T15:54:50.002Z,3.50
2018-08-23T15:57:18.353Z,3.40
2018-08-23T15:59:46.812Z,3.90
2018-08-23T16:02:15.268Z,3.80
2018-08-23T16:04:43.612Z,3.50
2018-08-23T16:07:11.981Z,3.33
2018-08-23T16:09:40.341Z,3.30
2018-08-23T16:12:08.705Z,3.40
2018-08-23T16:14:37.089Z,3.08
2018-08-23T16:17:10.954Z,3.25
2018-08-23T16:19:44.534Z,3.12
2018-08-23T16:22:12.910Z,3.00
2018-08-23T16:24:41.337Z,3.20
2018-08-23T16:27:09.706Z,3.20
2018-08-23T16:29:38.125Z,3.70
2018-08-23T16:32:06.705Z,6.20
2018-08-23T16:34:35.145Z,3.50
2018-08-23T16:37:03.524Z,3.30
2018-08-23T16:39:31.920Z,3.65
2018-08-23T16:42:00.331Z,5.28
2018-08-23T16:44:28.731Z,3.92
2018-08-23T16:46:57.096Z,3.70
2018-08-23T16:49:25.524Z,3.70
2018-08-23T16:51:53.931Z,3.70
2018-08-23T16:54:22.304Z,4.08
2018-08-23T16:56:50.706Z,3.80
2018-08-23T16:59:19.116Z,4.12
2018-08-23T17:01:47.550Z,4.55
2018-08-23T17:04:15.977Z,4.65
2018-08-23T17:06:44.340Z,4.87
2018-08-23T17:09:12.721Z,4.60
2018-08-23T17:11:41.103Z,4.70
2018-08-23T17:14:11.026Z,4.15
2018-08-23T17:16:44.769Z,4.80
2018-08-23T17:19:13.148Z,4.42
2018-08-23T17:21:41.609Z,4.80
2018-08-23T17:24:10.008Z,4.17
2018-08-23T17:26:38.404Z,4.80
2018-08-23T17:29:06.779Z,5.72
2018-08-23T17:31:35.170Z,13.10
2018-08-23T17:34:03.517Z,10.50
2018-08-23T17:36:31.956Z,13.20
2018-08-23T17:39:00.424Z,14.93
2018-08-23T17:41:28.838Z,14.23
2018-08-23T17:43:57.217Z,21.95
2018-08-23T17:46:25.583Z,14.90
2018-08-23T17:48:53.977Z,19.75
2018-08-23T17:51:22.394Z,8.03
2018-08-23T17:53:50.780Z,4.70
2018-08-23T17:56:19.153Z,6.43
2018-08-23T17:58:47.572Z,10.48
2018-08-23T18:01:15.998Z,8.38
2018-08-23T18:03:44.448Z,6.28
2018-08-23T18:06:12.872Z,6.70
2018-08-23T18:08:41.253Z,5.53
2018-08-23T18:11:09.629Z,5.90
2018-08-23T18:13:38.041Z,7.58
2018-08-23T18:16:12.027Z,5.90
2018-08-23T18:18:40.399Z,5.00
2018-08-23T18:21:08.732Z,4.60
2018-08-23T18:23:37.132Z,4.00
2018-08-23T18:26:05.534Z,3.87
2018-08-23T18:28:33.915Z,3.90
2018-08-23T18:31:02.232Z,4.12
2018-08-23T18:33:30.683Z,4.45
2018-08-23T18:35:59.080Z,4.67
2018-08-23T18:38:27.526Z,4.05
2018-08-23T18:40:55.877Z,4.92
2018-08-23T18:43:24.295Z,4.80
2018-08-23T18:45:52.685Z,9.73
2018-08-23T18:48:21.105Z,6.90
2018-08-23T18:50:49.475Z,6.03
2018-08-23T18:53:17.941Z,5.47
2018-08-23T18:55:46.388Z,5.23
2018-08-23T19:00:42.475Z,7.47
2018-08-23T19:03:10.853Z,6.60
2018-08-23T19:05:39.506Z,5.83
2018-08-23T19:08:08.269Z,7.62
2018-08-23T19:10:36.809Z,5.60
2018-08-23T19:13:05.608Z,6.20
2018-08-23T19:15:39.436Z,4.50
2018-08-23T19:18:08.043Z,7.00
2018-08-23T19:20:36.501Z,6.60
2018-08-23T19:23:05.017Z,4.05
2018-08-23T19:25:33.717Z,4.83
2018-08-23T19:28:02.126Z,5.40
2018-08-23T19:30:30.509Z,6.92
2018-08-23T19:32:59.023Z,4.37
2018-08-23T19:35:27.567Z,4.25
2018-08-23T19:37:56.114Z,4.80
2018-08-23T19:40:27.112Z,4.25
2018-08-23T19:42:55.513Z,4.80
2018-08-23T19:45:23.941Z,5.10
2018-08-23T19:47:54.709Z,5.90
2018-08-23T19:50:23.173Z,5.87
2018-08-23T19:52:51.548Z,5.37
2018-08-23T19:55:19.955Z,5.75
2018-08-23T19:57:48.299Z,5.45
2018-08-23T20:00:16.776Z,5.60
2018-08-23T20:02:45.220Z,6.50
2018-08-23T20:05:14.549Z,5.70
2018-08-23T20:07:42.976Z,7.08
2018-08-23T20:10:11.320Z,6.20
2018-08-23T20:12:39.744Z,7.20
2018-08-23T20:15:08.154Z,6.20
2018-08-23T20:17:36.578Z,7.45
2018-08-23T20:20:05.069Z,9.15
2018-08-23T20:22:33.465Z,7.90
2018-08-23T20:25:01.856Z,8.17
2018-08-23T20:27:30.434Z,8.60
2018-08-23T20:29:59.114Z,8.90
2018-08-23T20:32:27.776Z,8.70
2018-08-23T20:34:56.226Z,9.40
2018-08-23T20:37:24.608Z,13.80
2018-08-23T20:39:52.998Z,8.93
2018-08-23T20:42:21.849Z,5.93
2018-08-23T20:44:50.321Z,5.87
2018-08-23T20:47:18.769Z,5.97
2018-08-23T20:49:47.124Z,5.40
2018-08-23T20:52:15.521Z,5.23
2018-08-23T20:54:45.684Z,6.37
2018-08-23T20:57:14.917Z,21.17
2018-08-23T20:59:43.338Z,12.13
2018-08-23T21:02:11.728Z,7.43
2018-08-23T21:04:40.288Z,6.20
2018-08-23T21:07:08.592Z,6.03
2018-08-23T21:09:36.929Z,8.70
2018-08-23T21:12:05.429Z,6.73
2018-08-23T21:14:33.827Z,6.90
2018-08-23T21:17:02.215Z,7.27
2018-08-23T21:19:30.641Z,6.40
2018-08-23T21:21:58.965Z,5.83
2018-08-23T21:24:27.332Z,6.20
2018-08-23T21:26:55.701Z,6.97
2018-08-23T21:29:24.109Z,5.70
2018-08-23T21:31:52.523Z,6.47
2018-08-23T21:34:20.838Z,6.40
2018-08-23T21:36:49.216Z,6.37
2018-08-23T21:39:17.572Z,6.03
2018-08-23T21:41:45.937Z,5.20
2018-08-23T21:44:14.270Z,5.77
2018-08-23T21:46:42.635Z,6.83
2018-08-23T21:49:11.026Z,5.33
2018-08-23T21:51:39.384Z,6.17
2018-08-23T21:54:07.787Z,9.03
2018-08-23T21:56:36.164Z,8.87
2018-08-23T21:59:04.528Z,7.00
2018-08-23T22:01:32.873Z,8.97
2018-08-23T22:04:01.224Z,6.30
2018-08-23T22:06:29.570Z,6.60
2018-08-23T22:08:57.974Z,10.57
2018-08-23T22:11:26.370Z,6.80
2018-08-23T22:13:54.736Z,7.30
2018-08-23T22:16:23.078Z,8.23
2018-08-23T22:18:51.422Z,7.50
2018-08-23T22:21:19.757Z,6.97
2018-08-23T22:23:48.184Z,10.57
2018-08-23T22:26:16.517Z,7.20
2018-08-23T22:28:44.908Z,8.50
2018-08-23T22:31:13.256Z,7.57
2018-08-23T22:33:41.729Z,7.23
2018-08-23T22:36:10.071Z,7.57
2018-08-23T22:38:38.453Z,7.90
2018-08-23T22:41:06.785Z,8.40
2018-08-23T22:43:35.143Z,8.30
2018-08-23T22:46:03.476Z,7.63
2018-08-23T22:48:31.808Z,9.53
2018-08-23T22:51:00.136Z,7.43
2018-08-23T22:53:28.524Z,7.53
2018-08-23T22:55:56.887Z,7.23
2018-08-23T22:58:25.242Z,7.70
2018-08-23T23:00:53.665Z,10.20
2018-08-23T23:03:27.275Z,13.47
2018-08-23T23:05:55.610Z,7.70
2018-08-23T23:08:23.956Z,8.47
2018-08-23T23:10:52.298Z,9.37
2018-08-23T23:13:20.671Z,14.33
2018-08-23T23:15:48.988Z,9.63
2018-08-23T23:18:17.456Z,9.47
2018-08-23T23:20:45.802Z,9.37
2018-08-23T23:23:14.160Z,14.57
2018-08-23T23:25:42.540Z,13.60
2018-08-23T23:28:10.887Z,10.73
2018-08-23T23:30:39.223Z,10.33
2018-08-23T23:33:07.624Z,20.03
2018-08-23T23:35:35.976Z,11.27
2018-08-23T23:38:04.360Z,17.73
2018-08-23T23:40:32.684Z,12.20
2018-08-23T23:43:01.044Z,18.20
2018-08-23T23:45:29.502Z,18.43
2018-08-23T23:47:57.830Z,12.43
2018-08-23T23:50:26.164Z,11.33
2018-08-23T23:52:54.504Z,12.60
2018-08-23T23:55:22.884Z,11.77
2018-08-23T23:57:51.237Z,14.83
